Alvada, Ohio
Current Conditions -  °F | °C
As of 11:53 AM on Tuesday 21 Oct 2014 (Local Time) from KFDY Reporting Station
Overcast Overcast  
Wind Chill: 50°   Ceiling: 1500
Heat Index: 50°   Visibility: 10mi
Dew Point: 46°   Wind: 13mph
Humidity: 86%   Direction: 330°NNW
Pressure: 30.01"   Gusts: NA
Location:  41.05°N, 83.4°W
Report Text: KFDY 211553Z AUTO 33011KT 10SM FEW008 OVC015 10/08 A3001 RMK AO2 RAB22E43 SLP161 P0000 T01000078
Loading
Personal Weather Stations






























Interactive Weather Map
Tropical Storm Tracking
New forecast layout! Learn more

10-Day Weather Forecast

Advertisements
Track Severe Weather on mobile